createdAt,value
2017-04-18T00:01:00.185Z,3.80
2017-04-18T00:02:06.209Z,3.80
2017-04-18T00:03:12.149Z,3.80
2017-04-18T00:04:18.701Z,3.80
2017-04-18T00:05:24.580Z,3.80
2017-04-18T00:06:30.481Z,3.80
2017-04-18T00:07:36.595Z,3.80
2017-04-18T00:08:43.298Z,3.80
2017-04-18T00:09:49.437Z,3.80
2017-04-18T00:10:55.386Z,3.70
2017-04-18T00:12:01.368Z,3.60
2017-04-18T00:13:07.996Z,3.60
2017-04-18T00:14:14.634Z,3.60
2017-04-18T00:15:20.491Z,3.60
2017-04-18T00:16:26.232Z,3.60
2017-04-18T00:17:32.179Z,3.50
2017-04-18T00:18:37.940Z,3.50
2017-04-18T00:19:43.832Z,3.50
2017-04-18T00:20:49.884Z,3.50
2017-04-18T00:21:55.785Z,3.40
2017-04-18T00:23:01.774Z,3.40
2017-04-18T00:24:07.956Z,3.40
2017-04-18T00:25:14.053Z,3.40
2017-04-18T00:26:20.036Z,3.40
2017-04-18T00:27:26.189Z,3.40
2017-04-18T00:28:32.119Z,3.30
2017-04-18T00:29:37.852Z,3.40
2017-04-18T00:30:43.914Z,3.30
2017-04-18T00:31:49.729Z,3.30
2017-04-18T00:32:55.816Z,3.30
2017-04-18T00:34:01.892Z,3.30
2017-04-18T00:35:07.738Z,3.20
2017-04-18T00:36:13.733Z,3.30
2017-04-18T00:37:19.665Z,3.20
2017-04-18T00:38:25.492Z,3.30
2017-04-18T00:39:32.125Z,3.30
2017-04-18T00:40:38.129Z,3.30
2017-04-18T00:41:43.925Z,3.40
2017-04-18T00:42:49.801Z,3.40
2017-04-18T00:43:55.800Z,3.40
2017-04-18T00:45:01.678Z,3.50
2017-04-18T00:46:07.549Z,3.40
2017-04-18T00:47:13.326Z,3.40
2017-04-18T00:48:19.927Z,3.40
2017-04-18T00:49:25.882Z,3.50
2017-04-18T00:50:32.138Z,3.50
2017-04-18T00:51:37.832Z,3.50
2017-04-18T00:52:43.658Z,3.50
2017-04-18T00:53:49.658Z,3.50
2017-04-18T00:54:55.458Z,3.60
2017-04-18T00:56:01.419Z,3.60
2017-04-18T00:57:07.249Z,3.60
2017-04-18T00:58:13.184Z,3.60
2017-04-18T00:59:19.233Z,3.60
2017-04-18T01:00:25.307Z,3.60
2017-04-18T01:01:31.525Z,3.60
2017-04-18T01:02:37.365Z,3.60
2017-04-18T01:03:43.385Z,3.60
2017-04-18T01:04:49.382Z,3.60
2017-04-18T01:05:55.428Z,3.60
2017-04-18T01:07:01.641Z,3.60
2017-04-18T01:08:07.493Z,3.60
2017-04-18T01:09:13.226Z,3.60
2017-04-18T01:10:19.171Z,3.60
2017-04-18T01:11:25.329Z,3.50
2017-04-18T01:12:31.245Z,3.50
2017-04-18T01:13:37.121Z,3.50
2017-04-18T01:14:42.903Z,3.50
2017-04-18T01:15:49.105Z,3.60
2017-04-18T01:16:54.817Z,3.60
2017-04-18T01:18:00.857Z,3.50
2017-04-18T01:19:06.580Z,3.60
2017-04-18T01:20:12.497Z,3.50
2017-04-18T01:21:18.276Z,3.60
2017-04-18T01:22:23.977Z,3.60
2017-04-18T01:23:30.269Z,3.60
2017-04-18T01:24:36.060Z,3.60
2017-04-18T01:25:41.865Z,3.60
2017-04-18T01:26:48.321Z,3.60
2017-04-18T01:27:54.259Z,3.60
2017-04-18T01:29:00.454Z,3.60
2017-04-18T01:30:06.232Z,3.60
2017-04-18T01:31:12.065Z,3.60
2017-04-18T01:32:18.537Z,3.60
2017-04-18T01:33:24.364Z,3.60
2017-04-18T01:34:30.253Z,3.60
2017-04-18T01:35:36.218Z,3.60
2017-04-18T01:36:42.850Z,3.60
2017-04-18T01:37:48.569Z,3.60
2017-04-18T01:38:54.360Z,3.60
2017-04-18T01:40:04.500Z,3.60
2017-04-18T01:41:15.930Z,3.60
2017-04-18T01:42:27.313Z,3.60
2017-04-18T01:43:38.847Z,3.50
2017-04-18T01:46:53.885Z,3.60
2017-04-18T01:47:59.831Z,3.50
2017-04-18T01:49:05.670Z,3.60
2017-04-18T01:50:11.360Z,3.60
2017-04-18T01:51:17.129Z,3.60
2017-04-18T01:52:23.176Z,3.60
2017-04-18T01:53:29.133Z,3.60
2017-04-18T01:54:35.086Z,3.60
2017-04-18T01:55:40.860Z,3.60
2017-04-18T01:56:47.310Z,3.60
2017-04-18T01:57:53.318Z,3.60
2017-04-18T01:58:59.193Z,3.60
2017-04-18T02:00:06.365Z,3.60
2017-04-18T02:01:12.358Z,3.60
2017-04-18T02:02:18.299Z,3.60
2017-04-18T02:03:24.258Z,3.50
2017-04-18T02:04:30.140Z,3.60
2017-04-18T02:05:36.016Z,3.60
2017-04-18T02:06:41.770Z,3.60
2017-04-18T02:07:47.665Z,3.60
2017-04-18T02:08:54.242Z,3.60
2017-04-18T02:09:59.986Z,3.60
2017-04-18T02:11:06.109Z,3.60
2017-04-18T02:12:12.218Z,3.60
2017-04-18T02:13:18.272Z,3.60
2017-04-18T02:14:24.343Z,3.60
2017-04-18T02:15:30.213Z,3.60
2017-04-18T02:16:36.019Z,3.60
2017-04-18T02:17:41.974Z,3.60
2017-04-18T02:18:47.930Z,3.60
2017-04-18T02:19:53.862Z,3.60
2017-04-18T02:20:59.777Z,3.60
2017-04-18T02:22:05.588Z,3.50
2017-04-18T02:23:13.653Z,3.50
2017-04-18T02:24:19.625Z,3.50
2017-04-18T02:25:25.623Z,3.50
2017-04-18T02:26:31.538Z,3.50
2017-04-18T02:27:37.674Z,3.50
2017-04-18T02:28:43.783Z,3.50
2017-04-18T02:29:49.732Z,3.50
2017-04-18T02:30:55.738Z,3.50
2017-04-18T02:32:01.557Z,3.50
2017-04-18T02:33:07.359Z,3.50
2017-04-18T02:34:13.444Z,3.40
2017-04-18T02:35:19.602Z,3.40
2017-04-18T02:36:25.542Z,3.40
2017-04-18T02:37:31.377Z,3.40
2017-04-18T02:38:37.468Z,3.40
2017-04-18T02:39:43.573Z,3.40
2017-04-18T02:40:49.585Z,3.40
2017-04-18T02:41:55.820Z,3.40
2017-04-18T02:43:01.800Z,3.40
2017-04-18T02:44:07.610Z,3.40
2017-04-18T02:45:13.546Z,3.30
2017-04-18T02:46:20.201Z,3.20
2017-04-18T02:47:26.137Z,3.30
2017-04-18T02:48:32.039Z,3.30
2017-04-18T02:49:37.969Z,3.30
2017-04-18T02:50:43.885Z,3.30
2017-04-18T02:51:50.617Z,3.30
2017-04-18T02:52:56.700Z,3.30
2017-04-18T02:54:03.249Z,3.30
2017-04-18T02:55:09.165Z,3.40
2017-04-18T02:56:15.169Z,3.30
2017-04-18T02:57:21.121Z,3.30
2017-04-18T02:58:27.038Z,3.30
2017-04-18T02:59:33.203Z,3.30
2017-04-18T03:00:39.184Z,3.30
2017-04-18T03:01:45.278Z,3.30
2017-04-18T03:02:51.296Z,3.30
2017-04-18T03:03:57.460Z,3.30
2017-04-18T03:05:03.369Z,3.30
2017-04-18T03:06:09.184Z,3.30
2017-04-18T03:07:15.058Z,3.30
2017-04-18T03:08:20.934Z,3.30
2017-04-18T03:09:26.941Z,3.30
2017-04-18T03:10:32.971Z,3.30
2017-04-18T03:11:38.950Z,3.30
2017-04-18T03:12:44.958Z,3.30
2017-04-18T03:13:50.895Z,3.30
2017-04-18T03:14:56.771Z,3.30
2017-04-18T03:16:02.785Z,3.30
2017-04-18T03:17:08.703Z,3.30
2017-04-18T03:18:14.521Z,3.30
2017-04-18T03:19:20.493Z,3.30
2017-04-18T03:20:26.494Z,3.30
2017-04-18T03:21:33.000Z,3.30
2017-04-18T03:22:38.990Z,3.30
2017-04-18T03:23:44.750Z,3.40
2017-04-18T03:24:50.736Z,3.40
2017-04-18T03:25:56.614Z,3.40
2017-04-18T03:27:02.523Z,3.40
2017-04-18T03:28:08.302Z,3.40
2017-04-18T03:29:17.241Z,3.40
2017-04-18T03:30:23.053Z,3.40
2017-04-18T03:31:29.198Z,3.40
2017-04-18T03:32:35.105Z,3.40
2017-04-18T03:33:41.037Z,3.40
2017-04-18T03:34:46.853Z,3.40
2017-04-18T03:35:53.480Z,3.40
2017-04-18T03:36:59.433Z,3.50
2017-04-18T03:38:05.517Z,3.40
2017-04-18T03:39:11.263Z,3.50
2017-04-18T03:40:17.232Z,3.40
2017-04-18T03:41:23.267Z,3.40
2017-04-18T03:42:29.176Z,3.40
2017-04-18T03:43:35.809Z,3.50
2017-04-18T03:44:42.613Z,3.40
2017-04-18T03:45:48.632Z,3.40
2017-04-18T03:46:54.448Z,3.50
2017-04-18T03:48:00.494Z,3.40
2017-04-18T03:49:06.493Z,3.40
2017-04-18T03:50:12.405Z,3.40
2017-04-18T03:51:18.268Z,3.40
2017-04-18T03:52:24.021Z,3.40
2017-04-18T03:53:29.817Z,3.40
2017-04-18T03:54:36.444Z,3.40
2017-04-18T03:55:42.511Z,3.40
2017-04-18T03:56:48.265Z,3.40
2017-04-18T03:57:54.065Z,3.40
2017-04-18T03:59:00.084Z,3.40
2017-04-18T04:00:05.961Z,3.40
2017-04-18T04:01:11.993Z,3.40
2017-04-18T04:02:17.758Z,3.40
2017-04-18T04:03:24.841Z,3.40
2017-04-18T04:04:30.716Z,3.40
2017-04-18T04:05:36.605Z,3.30
2017-04-18T04:06:42.471Z,3.40
2017-04-18T04:07:48.453Z,3.40
2017-04-18T04:08:54.333Z,3.40
2017-04-18T04:10:00.332Z,3.40
2017-04-18T04:11:06.309Z,3.40
2017-04-18T04:12:12.114Z,3.40
2017-04-18T04:13:18.077Z,3.40
2017-04-18T04:14:23.809Z,3.40
2017-04-18T04:15:29.915Z,3.40
2017-04-18T04:16:40.626Z,3.30
2017-04-18T04:17:46.548Z,3.40
2017-04-18T04:18:52.585Z,3.40
2017-04-18T04:19:59.425Z,3.30
2017-04-18T04:21:05.519Z,3.30
2017-04-18T04:22:11.400Z,3.40
2017-04-18T04:23:17.213Z,3.40
2017-04-18T04:24:23.657Z,3.40
2017-04-18T04:25:30.210Z,3.40
2017-04-18T04:26:36.308Z,3.30
2017-04-18T04:27:42.990Z,3.30
2017-04-18T04:28:48.768Z,3.40
2017-04-18T04:29:54.551Z,3.40
2017-04-18T04:31:00.504Z,3.40
2017-04-18T04:32:06.580Z,3.30
2017-04-18T04:33:12.415Z,3.40
2017-04-18T04:34:18.381Z,3.40
2017-04-18T04:35:24.117Z,3.40
2017-04-18T04:36:29.965Z,3.40
2017-04-18T04:37:35.965Z,3.40
2017-04-18T04:38:41.901Z,3.40
2017-04-18T04:39:47.660Z,3.40
2017-04-18T04:40:53.645Z,3.40
2017-04-18T04:41:59.630Z,3.40
2017-04-18T04:43:05.444Z,3.40
2017-04-18T04:44:11.525Z,3.50
2017-04-18T04:45:17.436Z,3.50
2017-04-18T04:46:23.205Z,3.40
2017-04-18T04:47:29.116Z,3.40
2017-04-18T04:48:35.054Z,3.40
2017-04-18T04:49:40.836Z,3.40
2017-04-18T04:50:47.363Z,3.40
2017-04-18T04:51:53.393Z,3.40
2017-04-18T04:52:59.314Z,3.40
2017-04-18T04:54:05.153Z,3.40
2017-04-18T04:55:11.109Z,3.40
2017-04-18T04:56:17.668Z,3.40
2017-04-18T04:57:23.668Z,3.50
2017-04-18T04:58:30.403Z,3.40
2017-04-18T04:59:36.303Z,3.40
2017-04-18T05:00:42.379Z,3.50
2017-04-18T05:01:48.229Z,3.50
2017-04-18T05:02:54.097Z,3.40
2017-04-18T05:04:00.051Z,3.40
2017-04-18T05:05:06.192Z,3.40
2017-04-18T05:06:12.101Z,3.40
2017-04-18T05:07:18.085Z,3.50
2017-04-18T05:08:24.024Z,3.40
2017-04-18T05:09:30.009Z,3.50
2017-04-18T05:10:36.012Z,3.50
2017-04-18T05:11:41.789Z,3.40
2017-04-18T05:12:47.704Z,3.50
2017-04-18T05:13:53.717Z,3.50
2017-04-18T05:14:59.560Z,3.50
2017-04-18T05:16:05.772Z,3.50
2017-04-18T05:17:11.861Z,3.60
2017-04-18T05:18:17.645Z,3.60
2017-04-18T05:19:23.682Z,3.60
2017-04-18T05:20:29.433Z,3.50
2017-04-18T05:21:36.040Z,3.50
2017-04-18T05:22:42.001Z,3.60
2017-04-18T05:23:53.578Z,3.60
2017-04-18T05:25:00.179Z,3.60
2017-04-18T05:26:06.142Z,3.60
2017-04-18T05:27:12.941Z,3.60
2017-04-18T05:28:18.865Z,3.60
2017-04-18T05:29:24.664Z,3.60
2017-04-18T05:30:30.657Z,3.60
2017-04-18T05:31:37.250Z,3.60
2017-04-18T05:32:43.493Z,3.60
2017-04-18T05:33:49.501Z,3.60
2017-04-18T05:34:55.495Z,3.60
2017-04-18T05:36:01.445Z,3.60
2017-04-18T05:37:07.396Z,3.60
2017-04-18T05:38:14.310Z,3.60
2017-04-18T05:39:20.214Z,3.60
2017-04-18T05:40:26.016Z,3.60
2017-04-18T05:41:32.094Z,3.60
2017-04-18T05:42:38.061Z,3.60
2017-04-18T05:43:44.094Z,3.70
2017-04-18T05:44:50.051Z,3.70
2017-04-18T05:45:55.990Z,3.70
2017-04-18T05:47:01.843Z,3.70
2017-04-18T05:48:07.853Z,3.70
2017-04-18T05:49:14.470Z,3.70
2017-04-18T05:50:20.447Z,3.70
2017-04-18T05:51:26.538Z,3.70
2017-04-18T05:52:32.492Z,3.70
2017-04-18T05:53:38.951Z,3.70
2017-04-18T05:54:44.961Z,3.70
2017-04-18T05:55:51.110Z,3.70
2017-04-18T05:56:56.862Z,3.70
2017-04-18T05:58:02.715Z,3.70
2017-04-18T05:59:08.610Z,3.70
2017-04-18T06:00:14.536Z,3.80
2017-04-18T06:01:20.577Z,3.90
2017-04-18T06:02:26.649Z,3.80
2017-04-18T06:03:32.717Z,3.90
2017-04-18T06:04:38.637Z,4.20
2017-04-18T06:05:44.521Z,4.10
2017-04-18T06:06:50.318Z,4.10
2017-04-18T06:07:56.226Z,4.20
2017-04-18T06:09:02.314Z,4.50
2017-04-18T06:10:08.166Z,4.60
2017-04-18T06:11:15.065Z,4.80
2017-04-18T06:12:21.009Z,4.80
2017-04-18T06:13:27.015Z,5.10
2017-04-18T06:14:33.092Z,5.00
2017-04-18T06:15:39.014Z,5.10
2017-04-18T06:16:45.524Z,4.90
2017-04-18T06:17:51.678Z,4.40
2017-04-18T06:18:57.635Z,4.30
2017-04-18T06:20:03.554Z,4.40
2017-04-18T06:21:09.686Z,4.30
2017-04-18T06:22:15.465Z,4.50
2017-04-18T06:23:21.219Z,4.50
2017-04-18T06:24:27.046Z,4.40
2017-04-18T06:25:33.110Z,4.30
2017-04-18T06:26:38.877Z,4.30
2017-04-18T06:27:44.878Z,4.30
2017-04-18T06:28:50.881Z,4.20
2017-04-18T06:29:56.724Z,4.20
2017-04-18T06:31:02.944Z,4.10
2017-04-18T06:32:09.669Z,4.10
2017-04-18T06:33:16.794Z,4.10
2017-04-18T06:34:22.585Z,4.00
2017-04-18T06:35:28.587Z,4.00
2017-04-18T06:36:34.416Z,4.00
2017-04-18T06:37:40.402Z,4.10
2017-04-18T06:38:46.577Z,4.40
2017-04-18T06:39:52.569Z,4.40
2017-04-18T06:40:59.149Z,4.50
2017-04-18T06:42:05.102Z,4.50
2017-04-18T06:43:10.869Z,4.40
2017-04-18T06:44:16.831Z,4.50
2017-04-18T06:45:22.938Z,4.70
2017-04-18T06:46:28.833Z,4.70
2017-04-18T06:47:34.964Z,4.60
2017-04-18T06:48:42.171Z,4.60
2017-04-18T06:49:48.026Z,4.60
2017-04-18T06:50:53.891Z,4.70
2017-04-18T06:51:59.857Z,4.60
2017-04-18T06:53:06.798Z,4.60
2017-04-18T06:54:12.741Z,4.70
2017-04-18T06:55:18.745Z,4.70
2017-04-18T06:56:24.762Z,4.90
2017-04-18T06:57:31.468Z,5.00
2017-04-18T06:58:37.399Z,5.10
2017-04-18T06:59:43.252Z,5.00
2017-04-18T07:00:49.322Z,5.10
2017-04-18T07:01:55.135Z,5.00
2017-04-18T07:03:10.170Z,5.00
2017-04-18T07:04:16.189Z,5.00
2017-04-18T07:05:22.125Z,5.20
2017-04-18T07:06:28.150Z,5.00
2017-04-18T07:07:33.930Z,4.80
2017-04-18T07:08:39.995Z,4.70
2017-04-18T07:09:45.838Z,4.50
2017-04-18T07:10:51.720Z,4.60
2017-04-18T07:11:57.944Z,4.60
2017-04-18T07:13:04.003Z,4.40
2017-04-18T07:14:10.049Z,4.50
2017-04-18T07:15:16.178Z,4.50
2017-04-18T07:16:22.084Z,4.70
2017-04-18T07:17:29.725Z,4.70
2017-04-18T07:18:35.894Z,4.80
2017-04-18T07:19:41.945Z,4.90
2017-04-18T07:20:48.249Z,4.90
2017-04-18T07:21:54.928Z,4.80
2017-04-18T07:23:01.105Z,4.90
2017-04-18T07:24:06.964Z,4.90
2017-04-18T07:25:14.806Z,5.10
2017-04-18T07:26:20.737Z,5.00
2017-04-18T07:27:26.750Z,4.80
2017-04-18T07:29:39.846Z,5.00
2017-04-18T07:30:46.646Z,5.00
2017-04-18T07:31:52.576Z,4.80
2017-04-18T07:32:59.628Z,4.60
2017-04-18T07:34:06.549Z,4.80
2017-04-18T07:35:12.450Z,5.20
2017-04-18T07:36:18.285Z,5.70
2017-04-18T07:37:25.407Z,5.80
2017-04-18T07:38:31.500Z,6.20
2017-04-18T07:39:37.277Z,6.70
2017-04-18T07:40:43.201Z,5.80
2017-04-18T07:41:49.142Z,5.50
2017-04-18T07:42:55.268Z,5.40
2017-04-18T07:44:01.093Z,5.40
2017-04-18T07:45:07.097Z,5.20
2017-04-18T07:46:12.977Z,5.10
2017-04-18T07:47:18.930Z,5.60
2017-04-18T07:48:24.749Z,5.80
2017-04-18T07:49:30.679Z,6.00
2017-04-18T07:50:37.013Z,6.10
2017-04-18T07:51:42.932Z,6.10
2017-04-18T07:52:48.835Z,6.10
2017-04-18T07:53:54.780Z,5.90
2017-04-18T07:55:00.596Z,6.00
2017-04-18T07:56:06.385Z,5.80
2017-04-18T07:57:12.230Z,5.30
2017-04-18T07:58:18.957Z,5.40
2017-04-18T07:59:24.707Z,5.80
2017-04-18T08:00:30.682Z,5.60
2017-04-18T08:01:36.873Z,5.60
2017-04-18T08:02:42.838Z,5.50
2017-04-18T08:03:48.552Z,5.40
2017-04-18T08:04:54.588Z,5.40
2017-04-18T08:06:00.486Z,5.50
2017-04-18T08:07:06.357Z,5.50
2017-04-18T08:08:12.474Z,5.20
2017-04-18T08:09:18.237Z,5.10
2017-04-18T08:10:24.076Z,5.00
2017-04-18T08:11:30.140Z,5.00
2017-04-18T08:12:36.270Z,5.20
2017-04-18T08:13:42.247Z,5.40
2017-04-18T08:14:48.361Z,5.40
2017-04-18T08:15:54.341Z,5.00
2017-04-18T08:17:00.113Z,5.10
2017-04-18T08:18:06.166Z,5.10
2017-04-18T08:19:11.850Z,4.90
2017-04-18T08:20:17.812Z,4.90
2017-04-18T08:21:23.813Z,4.80
2017-04-18T08:22:29.817Z,4.90
2017-04-18T08:23:36.270Z,4.80
2017-04-18T08:24:41.985Z,4.60
2017-04-18T08:25:47.748Z,4.60
2017-04-18T08:26:53.746Z,4.70
2017-04-18T08:27:59.682Z,5.10
2017-04-18T08:29:05.465Z,5.30
2017-04-18T08:30:11.413Z,5.40
2017-04-18T08:31:17.365Z,5.90
2017-04-18T08:32:23.077Z,6.50
2017-04-18T08:33:28.978Z,6.30
2017-04-18T08:34:34.811Z,6.20
2017-04-18T08:35:40.762Z,6.40
2017-04-18T08:36:46.623Z,5.80
2017-04-18T08:37:52.640Z,5.90
2017-04-18T08:38:58.623Z,6.10
2017-04-18T08:40:04.449Z,6.30
2017-04-18T08:41:10.468Z,6.50
2017-04-18T08:42:16.443Z,6.40
2017-04-18T08:43:22.388Z,6.20
2017-04-18T08:44:28.433Z,5.80
2017-04-18T08:45:34.388Z,6.00
2017-04-18T08:46:40.397Z,6.20
2017-04-18T08:47:46.197Z,6.20
2017-04-18T08:48:52.122Z,5.90
2017-04-18T08:49:57.962Z,5.70
2017-04-18T08:51:03.701Z,5.40
2017-04-18T08:52:09.476Z,5.20
2017-04-18T08:53:15.368Z,5.10
2017-04-18T08:54:21.196Z,5.10
2017-04-18T08:55:26.945Z,5.00
2017-04-18T08:56:33.105Z,4.90
2017-04-18T08:57:39.176Z,4.70
2017-04-18T08:58:45.396Z,4.80
2017-04-18T08:59:51.282Z,4.70
2017-04-18T09:00:57.065Z,4.60
2017-04-18T09:02:02.965Z,4.60
2017-04-18T09:03:08.815Z,4.60
2017-04-18T09:04:14.792Z,5.00
2017-04-18T09:05:20.649Z,5.60
2017-04-18T09:06:27.203Z,6.00
2017-04-18T09:07:32.969Z,6.40
2017-04-18T09:08:38.777Z,6.70
2017-04-18T09:09:44.715Z,6.60
2017-04-18T09:10:50.717Z,6.00
2017-04-18T09:11:57.305Z,5.80
2017-04-18T09:13:03.297Z,5.60
2017-04-18T09:14:09.129Z,5.70
2017-04-18T09:15:14.974Z,5.80
2017-04-18T09:16:21.565Z,6.40
2017-04-18T09:17:27.609Z,7.10
2017-04-18T09:18:33.761Z,7.20
2017-04-18T09:19:39.782Z,7.20
2017-04-18T09:20:45.693Z,7.50
2017-04-18T09:21:51.665Z,7.40
2017-04-18T09:22:57.633Z,7.60
2017-04-18T09:24:03.713Z,7.60
2017-04-18T09:25:09.546Z,7.90
2017-04-18T09:26:15.586Z,8.10
2017-04-18T09:27:21.361Z,8.30
2017-04-18T09:28:27.378Z,8.50
2017-04-18T09:29:33.149Z,8.00
2017-04-18T09:30:38.903Z,8.00
2017-04-18T09:31:44.617Z,7.40
2017-04-18T09:32:50.526Z,7.10
2017-04-18T09:33:56.337Z,7.40
2017-04-18T09:35:02.249Z,7.20
2017-04-18T09:36:08.244Z,6.80
2017-04-18T09:37:14.228Z,6.60
2017-04-18T09:38:20.837Z,6.00
2017-04-18T09:39:26.918Z,6.20
2017-04-18T09:40:33.448Z,7.10
2017-04-18T09:41:39.479Z,7.80
2017-04-18T09:42:45.321Z,8.20
2017-04-18T09:43:51.335Z,8.80
2017-04-18T09:44:57.149Z,8.60
2017-04-18T09:46:03.766Z,8.80
2017-04-18T09:47:09.605Z,8.80
2017-04-18T09:48:15.674Z,8.10
2017-04-18T09:49:21.775Z,7.80
2017-04-18T09:50:28.469Z,8.40
2017-04-18T09:51:34.609Z,8.60
2017-04-18T09:52:40.464Z,8.80
2017-04-18T09:53:47.247Z,9.50
2017-04-18T09:54:53.146Z,9.60
2017-04-18T09:55:58.888Z,9.80
2017-04-18T09:57:05.100Z,10.30
2017-04-18T09:58:11.786Z,9.50
2017-04-18T09:59:17.817Z,8.90
2017-04-18T10:00:23.805Z,8.40
2017-04-18T10:01:29.537Z,8.50
2017-04-18T10:02:35.586Z,8.50
2017-04-18T10:03:41.586Z,7.50
2017-04-18T10:04:47.509Z,7.30
2017-04-18T10:05:53.247Z,7.20
2017-04-18T10:06:59.076Z,7.70
2017-04-18T10:08:05.127Z,8.30
2017-04-18T10:09:11.230Z,8.90
2017-04-18T10:10:17.077Z,8.90
2017-04-18T10:11:23.172Z,9.30
2017-04-18T10:12:29.214Z,9.00
2017-04-18T10:13:35.224Z,8.60
2017-04-18T10:14:41.104Z,7.70
2017-04-18T10:15:46.904Z,8.10
2017-04-18T10:16:52.877Z,8.30
2017-04-18T10:17:58.841Z,8.20
2017-04-18T10:19:04.885Z,8.30
2017-04-18T10:20:10.937Z,8.10
2017-04-18T10:21:16.919Z,7.60
2017-04-18T10:22:22.982Z,7.80
2017-04-18T10:23:28.761Z,7.90
2017-04-18T10:24:34.597Z,8.00
2017-04-18T10:25:41.146Z,8.00
2017-04-18T10:26:47.093Z,7.50
2017-04-18T10:27:52.865Z,7.10
2017-04-18T10:28:58.642Z,7.00
2017-04-18T10:30:04.772Z,7.00
2017-04-18T10:31:11.357Z,6.90
2017-04-18T10:32:17.621Z,6.70
2017-04-18T10:33:23.601Z,6.90
2017-04-18T10:34:29.522Z,6.80
2017-04-18T10:35:35.520Z,6.90
2017-04-18T10:36:41.463Z,6.90
2017-04-18T10:37:47.482Z,7.20
2017-04-18T10:38:54.042Z,7.30
2017-04-18T10:40:00.026Z,6.80
2017-04-18T10:41:06.157Z,6.90
2017-04-18T10:42:12.772Z,6.60
2017-04-18T10:43:18.576Z,6.40
2017-04-18T10:44:24.524Z,6.50
2017-04-18T10:45:30.348Z,6.50
2017-04-18T10:46:37.213Z,6.50
2017-04-18T10:47:43.595Z,6.70
2017-04-18T10:48:49.525Z,6.50
2017-04-18T10:49:55.317Z,6.50
2017-04-18T10:51:01.093Z,6.60
2017-04-18T10:52:07.170Z,6.50
2017-04-18T10:53:13.097Z,6.50
2017-04-18T10:54:18.928Z,6.40
2017-04-18T10:55:24.711Z,6.60
2017-04-18T10:56:30.669Z,6.80
2017-04-18T10:57:36.499Z,7.10
2017-04-18T10:58:42.377Z,7.20
2017-04-18T10:59:48.369Z,7.30
2017-04-18T11:00:54.353Z,7.30
2017-04-18T11:02:00.269Z,7.10
2017-04-18T11:03:06.509Z,7.00
2017-04-18T11:04:13.184Z,6.60
2017-04-18T11:05:19.076Z,6.40
2017-04-18T11:06:25.141Z,6.30
2017-04-18T11:07:30.936Z,6.30
2017-04-18T11:08:37.676Z,6.50
2017-04-18T11:09:43.547Z,6.70
2017-04-18T11:10:49.483Z,6.90
2017-04-18T11:11:55.475Z,6.90
2017-04-18T11:13:01.204Z,7.20
2017-04-18T11:14:07.083Z,7.30
2017-04-18T11:15:12.864Z,7.40
2017-04-18T11:16:18.876Z,7.30
2017-04-18T11:17:24.861Z,7.40
2017-04-18T11:18:30.869Z,8.00
2017-04-18T11:19:36.800Z,8.10
2017-04-18T11:20:42.689Z,8.00
2017-04-18T11:21:48.647Z,7.90
2017-04-18T11:22:54.455Z,8.20
2017-04-18T11:24:01.169Z,8.00
2017-04-18T11:25:07.005Z,7.90
2017-04-18T11:26:12.747Z,6.90
2017-04-18T11:27:19.220Z,7.00
2017-04-18T11:28:24.966Z,7.30
2017-04-18T11:29:30.990Z,7.90
2017-04-18T11:30:37.181Z,8.70
2017-04-18T11:31:43.190Z,9.30
2017-04-18T11:32:49.121Z,9.60
2017-04-18T11:33:55.192Z,9.10
2017-04-18T11:35:00.991Z,8.80
2017-04-18T11:36:06.877Z,7.70
2017-04-18T11:37:12.862Z,7.50
2017-04-18T11:38:18.782Z,7.10
2017-04-18T11:39:24.665Z,7.20
2017-04-18T11:40:30.500Z,7.00
2017-04-18T11:41:36.740Z,7.00
2017-04-18T11:42:42.602Z,6.80
2017-04-18T11:43:48.605Z,7.00
2017-04-18T11:44:54.562Z,7.10
2017-04-18T11:46:00.431Z,7.00
2017-04-18T11:47:06.365Z,7.40
2017-04-18T11:48:12.377Z,7.60
2017-04-18T11:49:18.194Z,8.00
2017-04-18T11:50:24.761Z,8.60
2017-04-18T11:51:30.764Z,8.80
2017-04-18T11:52:36.633Z,8.30
2017-04-18T11:53:42.365Z,7.80
2017-04-18T11:54:48.212Z,7.70
2017-04-18T11:55:54.734Z,7.50
2017-04-18T11:57:00.717Z,7.30
2017-04-18T11:58:06.595Z,7.40
2017-04-18T11:59:12.340Z,7.10
2017-04-18T12:00:18.177Z,6.90
2017-04-18T12:01:23.951Z,6.80
2017-04-18T12:02:29.913Z,6.70
2017-04-18T12:03:36.002Z,7.00
2017-04-18T12:04:41.965Z,7.50
2017-04-18T12:05:48.117Z,7.70
2017-04-18T12:06:53.897Z,7.50
2017-04-18T12:07:59.810Z,7.50
2017-04-18T12:09:05.857Z,7.30
2017-04-18T12:10:12.309Z,7.30
2017-04-18T12:11:18.192Z,7.20
2017-04-18T12:12:24.139Z,7.10
2017-04-18T12:13:29.879Z,7.10
2017-04-18T12:14:35.858Z,7.20
2017-04-18T12:15:41.686Z,7.40
2017-04-18T12:16:47.597Z,7.10
2017-04-18T12:17:53.708Z,7.20
2017-04-18T12:18:59.789Z,7.10
2017-04-18T12:20:05.812Z,7.00
2017-04-18T12:21:11.910Z,6.90
2017-04-18T12:22:18.010Z,6.90
2017-04-18T12:23:23.946Z,6.80
2017-04-18T12:24:30.797Z,6.60
2017-04-18T12:25:36.565Z,6.50
2017-04-18T12:26:42.548Z,6.60
2017-04-18T12:27:48.457Z,6.60
2017-04-18T12:28:54.277Z,6.40
2017-04-18T12:30:00.262Z,6.40
2017-04-18T12:31:07.067Z,6.80
2017-04-18T12:32:13.736Z,7.40
2017-04-18T12:33:19.477Z,6.90
2017-04-18T12:34:25.461Z,6.90
2017-04-18T12:35:31.292Z,6.80
2017-04-18T12:36:37.898Z,6.70
2017-04-18T12:37:43.650Z,6.60
2017-04-18T12:38:49.530Z,6.60
2017-04-18T12:39:55.398Z,6.50
2017-04-18T12:41:01.394Z,6.70
2017-04-18T12:42:07.286Z,6.90
2017-04-18T12:43:13.282Z,7.00
2017-04-18T12:44:19.330Z,7.20
2017-04-18T12:45:25.305Z,7.00
2017-04-18T12:46:31.306Z,7.40
2017-04-18T12:47:37.966Z,8.00
2017-04-18T12:48:43.816Z,8.20
2017-04-18T12:49:49.758Z,8.60
2017-04-18T12:50:55.701Z,9.10
2017-04-18T12:52:01.368Z,8.60
2017-04-18T12:53:07.520Z,8.10
2017-04-18T12:54:13.442Z,7.80
2017-04-18T12:55:19.411Z,7.70
2017-04-18T12:56:25.279Z,7.30
2017-04-18T12:57:31.076Z,7.20
2017-04-18T12:58:37.053Z,7.20
2017-04-18T12:59:43.577Z,7.30
2017-04-18T13:00:49.641Z,7.40
2017-04-18T13:01:55.520Z,8.00
2017-04-18T13:03:01.550Z,8.10
2017-04-18T13:04:07.833Z,7.70
2017-04-18T13:05:14.421Z,7.60
2017-04-18T13:06:20.244Z,7.50
2017-04-18T13:07:26.040Z,7.40
2017-04-18T13:08:32.649Z,7.10
2017-04-18T13:09:38.945Z,6.90
2017-04-18T13:10:44.860Z,7.00
2017-04-18T13:11:50.701Z,7.10
2017-04-18T13:12:56.598Z,7.70
2017-04-18T13:14:02.709Z,8.40
2017-04-18T13:15:08.893Z,8.40
2017-04-18T13:16:14.873Z,8.80
2017-04-18T13:17:20.874Z,8.90
2017-04-18T13:18:26.745Z,8.10
2017-04-18T13:19:33.461Z,8.20
2017-04-18T13:20:39.545Z,7.90
2017-04-18T13:21:45.401Z,7.80
2017-04-18T13:22:52.108Z,7.60
2017-04-18T13:23:58.085Z,7.40
2017-04-18T13:25:03.854Z,7.70
2017-04-18T13:26:10.196Z,7.70
2017-04-18T13:27:16.105Z,8.00
2017-04-18T13:28:21.831Z,7.90
2017-04-18T13:29:27.635Z,7.50
2017-04-18T13:30:33.506Z,7.20
2017-04-18T13:31:39.500Z,6.80
2017-04-18T13:32:46.218Z,6.90
2017-04-18T13:33:51.966Z,7.00
2017-04-18T13:34:57.972Z,7.00
2017-04-18T13:36:03.920Z,6.80
2017-04-18T13:37:09.809Z,6.80
2017-04-18T13:38:15.810Z,6.90
2017-04-18T13:39:21.580Z,7.20
2017-04-18T13:42:01.938Z,6.90
2017-04-18T13:43:08.337Z,6.80
2017-04-18T13:44:14.196Z,6.90
2017-04-18T13:45:20.182Z,6.90
2017-04-18T13:46:25.943Z,6.80
2017-04-18T13:47:32.509Z,6.60
2017-04-18T13:48:38.473Z,6.70
2017-04-18T13:49:44.525Z,6.70
2017-04-18T13:50:50.305Z,6.80
2017-04-18T13:51:56.081Z,6.80
2017-04-18T13:53:02.116Z,7.00
2017-04-18T13:54:08.201Z,7.10
2017-04-18T13:55:14.112Z,7.10
2017-04-18T13:56:19.880Z,6.80
2017-04-18T13:57:25.745Z,6.90
2017-04-18T13:58:32.458Z,6.80
2017-04-18T13:59:38.265Z,6.80
2017-04-18T14:00:44.316Z,6.40
2017-04-18T14:01:50.115Z,6.40
2017-04-18T14:02:55.981Z,6.40
2017-04-18T14:04:01.741Z,6.60
2017-04-18T14:05:07.616Z,6.90
2017-04-18T14:06:13.580Z,7.30
2017-04-18T14:07:19.339Z,7.40
2017-04-18T14:08:25.127Z,7.70
2017-04-18T14:09:31.065Z,8.30
2017-04-18T14:10:36.901Z,7.80
2017-04-18T14:11:43.670Z,7.60
2017-04-18T14:12:49.733Z,7.70
2017-04-18T14:13:55.740Z,7.50
2017-04-18T14:15:01.710Z,7.40
2017-04-18T14:16:07.621Z,7.60
2017-04-18T14:17:14.118Z,7.60
2017-04-18T14:18:19.790Z,7.60
2017-04-18T14:19:25.585Z,7.70
2017-04-18T14:20:31.385Z,8.10
2017-04-18T14:21:37.217Z,8.50
2017-04-18T14:22:43.228Z,8.70
2017-04-18T14:23:49.918Z,8.60
2017-04-18T14:24:55.643Z,8.70
2017-04-18T14:26:01.375Z,8.50
2017-04-18T14:27:07.462Z,8.20
2017-04-18T14:28:13.461Z,7.60
2017-04-18T14:29:19.407Z,7.60
2017-04-18T14:30:25.435Z,7.50
2017-04-18T14:31:31.317Z,8.00
2017-04-18T14:32:37.077Z,7.80
2017-04-18T14:33:42.879Z,7.60
2017-04-18T14:34:48.671Z,7.60
2017-04-18T14:35:54.625Z,7.30
2017-04-18T14:37:01.163Z,7.30
2017-04-18T14:38:07.032Z,6.90
2017-04-18T14:39:12.816Z,6.70
2017-04-18T14:40:18.889Z,6.40
2017-04-18T14:41:24.888Z,6.30
2017-04-18T14:42:30.668Z,6.20
2017-04-18T14:43:36.487Z,6.30
2017-04-18T14:44:42.992Z,6.30